Time;durP1;ratioP1;P1;durP2;ratioP2;P2;SDS_P1;SDS_P2;PMS_P1;PMS_P2;Temp;Humidity;BMP_temperature;BMP_pressure;BME280_temperature;BME280_humidity;BME280_pressure;Samples;Min_cycle;Max_cycle;Signal;HPM_P1;HPM_P2
2023/06/04 00:02:12;;;;;;;1.70;1.60;;;;;;;13.35;50.46;102048.38;5072518;28;20064;-83
2023/06/04 00:04:37;;;;;;;2.80;1.83;;;;;;;13.34;52.41;102049.25;5060007;28;20021;-83
2023/06/04 00:07:03;;;;;;;1.43;1.33;;;;;;;13.32;54.62;102047.53;5058114;28;20043;-83
2023/06/04 00:09:28;;;;;;;3.73;1.77;;;;;;;13.30;52.48;102042.31;5072408;28;20052;-83
2023/06/04 00:11:55;;;;;;;1.90;1.80;;;;;;;13.28;52.01;102044.94;5071629;28;20107;-83
2023/06/04 00:14:20;;;;;;;5.28;2.38;;;;;;;13.21;53.99;102048.47;5072808;28;20082;-83
2023/06/04 00:16:46;;;;;;;2.60;2.10;;;;;;;13.20;52.78;102038.03;5072346;28;20025;-83
2023/06/04 00:19:11;;;;;;;3.53;2.10;;;;;;;13.19;53.25;102037.19;5071772;28;20055;-82
2023/06/04 00:21:37;;;;;;;2.60;1.87;;;;;;;13.20;53.10;102043.25;5071852;28;20025;-82
2023/06/04 00:24:05;;;;;;;2.20;2.00;;;;;;;13.15;54.52;102037.22;5068219;28;20063;-83
2023/06/04 00:26:30;;;;;;;6.35;2.38;;;;;;;13.08;56.72;102047.66;5051657;28;20083;-82
2023/06/04 00:28:55;;;;;;;3.93;2.17;;;;;;;13.08;55.48;102036.41;5052073;28;20025;-83
2023/06/04 00:31:21;;;;;;;3.63;2.30;;;;;;;13.08;56.57;102050.28;5052439;28;20436;-83
2023/06/04 00:33:52;;;;;;;3.93;2.10;;;;;;;13.08;56.68;102044.22;5055347;28;20027;-82
2023/06/04 00:36:17;;;;;;;4.75;2.38;;;;;;;13.03;57.30;102044.25;5072409;28;20032;-83
2023/06/04 00:38:42;;;;;;;2.57;1.93;;;;;;;13.05;55.55;102042.50;5070872;28;20370;-83
2023/06/04 00:41:08;;;;;;;3.20;2.20;;;;;;;13.05;55.93;102042.50;5072081;28;20059;-82
2023/06/04 00:43:35;;;;;;;2.57;1.80;;;;;;;13.03;54.71;102039.03;5074970;28;20052;-83
2023/06/04 00:46:02;;;;;;;2.03;1.65;;;;;;;13.04;55.07;102039.88;5075658;28;20024;-82
2023/06/04 00:48:27;;;;;;;1.25;1.23;;;;;;;13.03;54.66;102032.94;5076055;28;20138;-83
2023/06/04 00:50:54;;;;;;;2.90;1.50;;;;;;;12.98;56.08;102035.56;5075746;28;20111;-83
2023/06/04 00:53:22;;;;;;;2.08;1.50;;;;;;;12.97;54.71;102033.84;5075206;28;20540;-83
2023/06/04 00:55:47;;;;;;;1.30;1.20;;;;;;;12.98;56.81;102035.56;5075460;28;20028;-83
2023/06/04 00:58:15;;;;;;;1.73;1.40;;;;;;;12.93;56.09;102034.75;5075989;28;20043;-83
2023/06/04 01:00:41;;;;;;;1.40;1.08;;;;;;;12.94;54.38;102031.28;5074855;28;20025;-83
2023/06/04 01:03:31;;;;;;;1.50;1.40;;;;;;;12.92;54.93;102035.63;5076289;28;20449;-83
2023/06/04 01:06:21;;;;;;;1.30;1.20;;;;;;;12.88;55.09;102036.50;5035461;28;20037;-83
2023/06/04 01:08:48;;;;;;;1.95;1.33;;;;;;;12.86;54.77;102038.25;5034722;28;20048;-83
2023/06/04 01:11:14;;;;;;;0.90;0.90;;;;;;;12.82;54.79;102040.00;5035726;28;20470;-83
2023/06/04 01:13:39;;;;;;;0.80;0.80;;;;;;;12.76;57.54;102037.47;5035580;28;20018;-83
2023/06/04 01:16:05;;;;;;;1.37;1.27;;;;;;;12.77;56.03;102047.84;5034776;28;20470;-83
2023/06/04 01:18:36;;;;;;;1.20;1.10;;;;;;;12.75;55.12;102046.16;5035562;28;20031;-82
2023/06/04 01:21:07;;;;;;;1.30;1.00;;;;;;;12.74;54.96;102047.00;5035044;28;20372;-83
2023/06/04 01:23:45;;;;;;;1.05;1.05;;;;;;;12.72;56.15;102046.16;5035024;28;20490;-83
2023/06/04 01:26:11;;;;;;;0.80;0.80;;;;;;;12.69;55.67;102046.16;5035441;28;20025;-83
2023/06/04 01:28:37;;;;;;;0.85;0.85;;;;;;;12.65;55.74;102050.53;5034534;28;20116;-83
2023/06/04 01:31:03;;;;;;;0.80;0.80;;;;;;;12.64;55.12;102048.78;5035424;28;20033;-83
2023/06/04 01:33:28;;;;;;;0.75;0.75;;;;;;;12.61;55.56;102043.63;5073516;28;20033;-83
2023/06/04 01:35:54;;;;;;;1.13;1.03;;;;;;;12.56;56.06;102050.56;5074548;28;20059;-83
2023/06/04 01:38:20;;;;;;;1.13;0.90;;;;;;;12.57;56.81;102057.50;5075134;28;20043;-83
2023/06/04 01:40:46;;;;;;;1.10;0.90;;;;;;;12.54;55.18;102047.97;5074842;28;20119;-82
2023/06/04 01:43:11;;;;;;;4.53;1.87;;;;;;;12.45;60.57;102053.19;5073234;28;20077;-83
2023/06/04 01:45:36;;;;;;;2.07;1.87;;;;;;;12.43;57.62;102044.56;5054694;28;20025;-83
2023/06/04 01:48:04;;;;;;;1.73;1.63;;;;;;;12.40;57.02;102037.59;5054857;28;20051;-83
2023/06/04 01:50:30;;;;;;;2.00;1.50;;;;;;;12.39;57.70;102040.22;5053968;28;20113;-82
2023/06/04 01:52:55;;;;;;;1.20;1.10;;;;;;;12.38;56.90;102039.38;5054497;28;20064;-83
2023/06/04 01:55:21;;;;;;;1.30;1.20;;;;;;;12.36;56.90;102043.72;5059256;28;20424;-83
2023/06/04 01:57:50;;;;;;;0.97;0.80;;;;;;;12.32;56.48;102036.78;5073439;28;20477;-83
2023/06/04 02:00:15;;;;;;;0.80;0.80;;;;;;;12.32;55.98;102044.56;5072879;28;20055;-83
2023/06/04 02:02:43;;;;;;;0.97;0.97;;;;;;;12.30;56.86;102044.59;5061952;28;20029;-83
2023/06/04 02:05:09;;;;;;;1.40;0.77;;;;;;;12.25;58.42;102042.88;5053882;28;20025;-83
2023/06/04 02:07:39;;;;;;;0.90;0.90;;;;;;;12.25;56.99;102042.88;5054595;28;20473;-83
2023/06/04 02:10:09;;;;;;;0.60;0.60;;;;;;;12.23;58.85;102048.06;5053613;28;20048;-83
2023/06/04 02:12:39;;;;;;;0.80;0.80;;;;;;;12.21;56.93;102044.63;5054302;28;20025;-83
2023/06/04 02:15:06;;;;;;;0.80;0.80;;;;;;;12.16;57.16;102039.41;5054429;28;20384;-83
2023/06/04 02:17:37;;;;;;;0.60;0.60;;;;;;;12.16;56.31;102036.81;5053162;28;20531;-82
2023/06/04 02:20:04;;;;;;;0.70;0.70;;;;;;;12.12;58.07;102032.50;5054630;28;20023;-83
2023/06/04 02:22:29;;;;;;;0.70;0.70;;;;;;;12.09;57.02;102032.50;5054069;28;20033;-83
2023/06/04 02:24:54;;;;;;;0.70;0.70;;;;;;;12.06;56.63;102029.91;5053182;28;20484;-83
2023/06/04 02:27:20;;;;;;;0.63;0.63;;;;;;;12.04;57.10;102027.31;5054309;28;20032;-83
2023/06/04 02:29:45;;;;;;;0.63;0.63;;;;;;;12.02;57.06;102034.25;5054420;28;20087;-83
2023/06/04 02:32:11;;;;;;;1.13;0.63;;;;;;;11.99;56.83;102036.84;5060982;28;20025;-83
2023/06/04 02:34:37;;;;;;;0.80;0.80;;;;;;;11.96;59.35;102035.97;5073893;28;20020;-83
2023/06/04 02:37:03;;;;;;;1.17;1.07;;;;;;;11.91;56.83;102035.97;5073941;28;20553;-83
2023/06/04 02:39:28;;;;;;;1.05;0.95;;;;;;;11.91;56.77;102035.97;5073083;28;20044;-83
2023/06/04 02:41:54;;;;;;;0.60;0.60;;;;;;;11.88;58.90;102033.38;5073974;28;20067;-83
2023/06/04 02:44:19;;;;;;;0.60;0.60;;;;;;;11.82;57.21;102036.84;5073993;28;20021;-83
2023/06/04 02:46:45;;;;;;;0.70;0.70;;;;;;;11.78;57.19;102036.84;5073153;28;20024;-83
2023/06/04 02:49:14;;;;;;;1.30;0.80;;;;;;;11.79;57.14;102043.78;5073953;28;20861;-83
2023/06/04 02:51:43;;;;;;;0.88;0.82;;;;;;;11.77;57.12;102045.50;5073387;28;20025;-83
2023/06/04 02:54:08;;;;;;;0.80;0.80;;;;;;;11.74;57.52;102043.78;5072633;28;20029;-82
2023/06/04 02:56:36;;;;;;;0.70;0.70;;;;;;;11.72;57.13;102049.00;5071922;28;20035;-82
2023/06/04 02:59:01;;;;;;;0.60;0.60;;;;;;;11.69;57.88;102042.94;5073701;28;20028;-83
2023/06/04 03:01:27;;;;;;;0.80;0.80;;;;;;;11.65;57.69;102044.66;5070623;28;20037;-83
2023/06/04 03:03:53;;;;;;;0.67;0.67;;;;;;;11.57;58.46;102036.00;5052889;28;20025;-83
2023/06/04 03:06:20;;;;;;;0.70;0.70;;;;;;;11.55;58.05;102041.22;5052493;28;20028;-83
2023/06/04 03:08:46;;;;;;;;;;;;;;;11.52;59.07;102046.41;5053375;28;20385;-83
2023/06/04 03:11:11;;;;;;;0.63;0.63;;;;;;;11.49;58.61;102048.16;5053417;28;19913;-83
2023/06/04 03:13:38;;;;;;;1.00;1.00;;;;;;;11.40;60.49;102049.88;5052359;28;20111;-84
2023/06/04 03:16:03;;;;;;;0.82;0.82;;;;;;;11.35;60.28;102045.53;5058102;28;20024;-83
2023/06/04 03:18:28;;;;;;;1.30;1.20;;;;;;;11.30;59.07;102047.25;5073187;28;20035;-83
2023/06/04 03:20:54;;;;;;;1.83;1.20;;;;;;;11.25;64.08;102040.34;5071995;28;20157;-83
2023/06/04 03:23:20;;;;;;;1.53;1.40;;;;;;;11.23;62.55;102041.19;5073210;28;20028;-83
2023/06/04 03:25:46;;;;;;;1.30;1.20;;;;;;;11.21;60.94;102037.72;5072650;28;20036;-83
2023/06/04 03:28:11;;;;;;;1.23;1.00;;;;;;;11.18;60.43;102035.97;5072618;28;20476;-83
2023/06/04 03:30:36;;;;;;;1.50;1.40;;;;;;;11.13;60.61;102038.59;5072910;28;20027;-82
2023/06/04 03:33:02;;;;;;;1.53;1.30;;;;;;;11.13;60.21;102032.53;5057679;28;20025;-83
2023/06/04 03:35:27;;;;;;;1.20;1.10;;;;;;;11.14;59.69;102036.88;5052172;28;20039;-83
2023/06/04 03:37:53;;;;;;;2.17;1.50;;;;;;;11.09;64.26;102044.63;5052542;28;20171;-83
2023/06/04 03:40:18;;;;;;;1.50;1.40;;;;;;;11.09;60.09;102039.44;5053020;28;20062;-83
2023/06/04 03:42:43;;;;;;;2.20;1.57;;;;;;;11.08;62.13;102042.91;5052139;28;20032;-83
2023/06/04 03:45:09;;;;;;;1.33;1.23;;;;;;;11.04;60.46;102041.16;5052634;28;20052;-83
2023/06/04 03:47:34;;;;;;;1.57;1.47;;;;;;;11.05;60.93;102044.63;5052208;28;20097;-83
2023/06/04 03:50:02;;;;;;;1.13;1.13;;;;;;;11.01;64.13;102038.56;5051985;28;20017;-83
2023/06/04 03:52:28;;;;;;;1.15;1.10;;;;;;;10.99;60.69;102042.88;5052706;28;20033;-83
2023/06/04 03:54:53;;;;;;;2.70;1.30;;;;;;;10.93;61.27;102038.53;5052340;28;20027;-83
2023/06/04 03:57:18;;;;;;;1.27;1.17;;;;;;;11.01;61.31;102041.16;5051544;28;20027;-84
2023/06/04 03:59:44;;;;;;;1.20;1.10;;;;;;;11.01;61.55;102037.69;5052287;28;20107;-83
2023/06/04 04:02:09;;;;;;;1.27;1.17;;;;;;;11.01;62.56;102035.97;5060018;28;20116;-83
2023/06/04 04:04:34;;;;;;;1.07;1.07;;;;;;;10.99;60.53;102032.47;5071199;28;20127;-83
2023/06/04 04:07:02;;;;;;;1.27;1.10;;;;;;;11.03;60.09;102041.19;5072136;28;20029;-83
2023/06/04 04:09:27;;;;;;;0.80;0.80;;;;;;;11.03;62.59;102043.78;5072675;28;20139;-83
2023/06/04 04:11:56;;;;;;;1.40;1.30;;;;;;;11.01;63.21;102043.75;5071599;28;20052;-83
2023/06/04 04:14:21;;;;;;;1.50;1.17;;;;;;;11.00;64.48;102049.81;5072457;28;20035;-83
2023/06/04 04:16:46;;;;;;;1.60;1.50;;;;;;;10.95;62.46;102042.00;5071942;28;20100;-84
2023/06/04 04:19:12;;;;;;;1.17;1.07;;;;;;;10.99;61.21;102044.63;5076580;28;20477;-83
2023/06/04 04:21:37;;;;;;;1.20;1.10;;;;;;;11.02;60.58;102045.50;5076264;28;20107;-83
2023/06/04 04:24:03;;;;;;;1.33;1.23;;;;;;;10.99;62.00;102042.03;5074214;28;20050;-83
2023/06/04 04:26:28;;;;;;;1.60;1.00;;;;;;;11.04;61.55;102042.88;5056187;28;20429;-83
2023/06/04 04:28:57;;;;;;;1.20;1.10;;;;;;;11.04;60.39;102040.28;5055953;28;20028;-83
2023/06/04 04:31:26;;;;;;;1.42;1.33;;;;;;;11.08;65.31;102045.50;5056154;28;20085;-82
2023/06/04 04:33:52;;;;;;;1.70;1.60;;;;;;;11.08;64.36;102048.13;5035359;28;20029;-83
2023/06/04 04:36:18;;;;;;;1.63;1.53;;;;;;;11.08;62.94;102052.44;5036245;28;20040;-83
2023/06/04 04:38:44;;;;;;;2.25;1.70;;;;;;;11.09;63.25;102042.03;5035149;28;20076;-83
2023/06/04 04:41:11;;;;;;;1.92;1.60;;;;;;;11.12;62.49;102052.44;5036487;28;20472;-83
2023/06/04 04:43:43;;;;;;;;;;;;;;;11.17;62.74;102049.84;5036355;28;20100;-83
2023/06/04 04:46:09;;;;;;;2.35;1.85;;;;;;;11.20;65.67;102049.00;5035436;28;20373;-83
2023/06/04 04:48:34;;;;;;;1.60;1.50;;;;;;;11.22;63.21;102047.25;5035865;28;20458;-82
2023/06/04 04:51:00;;;;;;;1.27;1.17;;;;;;;11.27;63.79;102055.94;5035965;28;20041;-83
2023/06/04 04:53:26;;;;;;;1.10;1.00;;;;;;;11.31;64.23;102049.00;5035822;28;20104;-83
2023/06/04 04:55:52;;;;;;;2.53;1.85;;;;;;;11.33;63.92;102055.06;5035807;28;20127;-83
2023/06/04 04:58:20;;;;;;;1.70;1.60;;;;;;;11.38;62.64;102056.81;5036101;28;20065;-83
2023/06/04 05:00:47;;;;;;;1.33;1.23;;;;;;;11.41;65.48;102056.81;5034807;28;20033;-83
2023/06/04 05:03:12;;;;;;;1.77;1.50;;;;;;;11.45;62.68;102052.47;5068011;28;20028;-83
2023/06/04 05:05:38;;;;;;;2.77;1.70;;;;;;;11.50;63.92;102060.28;5075923;28;20024;-83
2023/06/04 05:08:03;;;;;;;1.80;1.70;;;;;;;11.51;64.46;102049.03;5074889;28;20115;-83
2023/06/04 05:10:29;;;;;;;2.37;1.70;;;;;;;11.54;63.57;102054.22;5075099;28;20044;-83
2023/06/04 05:12:56;;;;;;;1.70;1.60;;;;;;;11.63;64.92;102053.34;5075148;28;20020;-83
2023/06/04 05:15:22;;;;;;;3.95;2.35;;;;;;;11.64;63.96;102052.47;5075436;28;20024;-83
2023/06/04 05:17:47;;;;;;;4.17;1.90;;;;;;;11.69;65.08;102055.94;5065315;28;20495;-84
2023/06/04 05:20:14;;;;;;;2.53;2.10;;;;;;;11.72;64.08;102056.81;5054696;28;20298;-84
2023/06/04 05:22:39;;;;;;;2.65;1.90;;;;;;;11.80;64.95;102062.00;5055415;28;20036;-84
2023/06/04 05:25:08;;;;;;;4.53;2.17;;;;;;;11.82;63.87;102068.06;5055586;28;20407;-84
2023/06/04 05:27:33;;;;;;;4.85;2.55;;;;;;;11.85;64.10;102068.06;5054201;28;20035;-83
2023/06/04 05:30:01;;;;;;;6.10;2.53;;;;;;;11.82;64.23;102062.84;5055394;28;20029;-84
2023/06/04 05:32:28;;;;;;;5.20;2.60;;;;;;;11.92;63.64;102065.47;5064604;28;20036;-84
2023/06/04 05:34:56;;;;;;;4.75;2.95;;;;;;;11.88;63.73;102065.47;5074308;28;20020;-83
2023/06/04 05:37:23;;;;;;;4.35;2.80;;;;;;;11.90;63.48;102055.94;5075223;28;20027;-84
2023/06/04 05:39:49;;;;;;;5.70;2.90;;;;;;;11.96;64.12;102069.78;5075069;28;20051;-83
2023/06/04 05:42:15;;;;;;;7.13;3.00;;;;;;;11.92;63.22;102058.53;5074217;28;20021;-84
2023/06/04 05:44:40;;;;;;;5.20;2.63;;;;;;;12.01;64.18;102057.69;5074888;28;20031;-83
2023/06/04 05:47:06;;;;;;;6.10;2.70;;;;;;;12.09;63.58;102065.47;5074707;28;20028;-83
2023/06/04 05:49:32;;;;;;;6.43;3.00;;;;;;;12.15;63.11;102066.34;5074089;28;20013;-83
2023/06/04 05:51:57;;;;;;;5.95;2.90;;;;;;;12.16;62.62;102054.16;5074981;28;20115;-84
2023/06/04 05:54:23;;;;;;;4.60;2.57;;;;;;;12.31;62.95;102058.47;5075011;28;20136;-84
2023/06/04 05:56:48;;;;;;;4.20;2.70;;;;;;;12.40;62.60;102061.03;5073826;28;20113;-84
2023/06/04 05:59:13;;;;;;;5.30;2.70;;;;;;;12.51;61.91;102067.06;5074642;28;20472;-83
2023/06/04 06:01:38;;;;;;;5.43;2.70;;;;;;;12.60;62.04;102067.91;5071188;28;20031;-83
2023/06/04 06:04:04;;;;;;;5.97;3.00;;;;;;;12.73;60.76;102076.53;5054914;28;20037;-83
2023/06/04 06:06:30;;;;;;;5.57;2.55;;;;;;;13.08;59.79;102071.13;5074817;28;20035;-83
2023/06/04 06:08:55;;;;;;;4.10;2.50;;;;;;;13.76;59.60;102061.97;5065607;28;20044;-81
2023/06/04 06:11:21;;;;;;;4.23;2.80;;;;;;;15.74;51.67;102063.75;5053722;28;20051;-82
2023/06/04 06:13:46;;;;;;;4.32;2.95;;;;;;;16.77;48.67;102068.78;5054981;28;20470;-80
2023/06/04 06:16:12;;;;;;;4.20;2.50;;;;;;;17.05;47.21;102064.72;5053680;28;20112;-81
2023/06/04 06:18:37;;;;;;;6.10;2.63;;;;;;;16.87;48.17;102069.41;5054432;28;20120;-81
2023/06/04 06:21:02;;;;;;;4.20;2.67;;;;;;;16.17;47.96;102073.47;5054402;28;20183;-84
2023/06/04 06:23:28;;;;;;;4.23;2.53;;;;;;;15.67;49.93;102064.75;5053653;28;20722;-84
2023/06/04 06:25:53;;;;;;;5.37;2.70;;;;;;;15.47;50.65;102068.56;5054164;28;20436;-83
2023/06/04 06:28:18;;;;;;;3.60;2.30;;;;;;;15.68;51.82;102069.09;5054266;28;20025;-83
2023/06/04 06:30:44;;;;;;;2.70;2.20;;;;;;;16.14;50.24;102076.16;5052850;28;20020;-84
2023/06/04 06:33:09;;;;;;;5.43;2.60;;;;;;;16.60;48.29;102082.25;5055343;28;20029;-84
2023/06/04 06:35:35;;;;;;;2.93;2.30;;;;;;;16.75;49.39;102078.44;5053807;28;20033;-83
2023/06/04 06:38:03;;;;;;;2.67;2.10;;;;;;;17.13;46.75;102094.25;5053163;28;20033;-83
2023/06/04 06:40:30;;;;;;;3.35;2.50;;;;;;;17.04;47.12;102084.81;5053384;28;20021;-84
2023/06/04 06:42:55;;;;;;;5.50;2.40;;;;;;;17.13;48.24;102094.25;5053886;28;20381;-84
2023/06/04 06:45:20;;;;;;;7.13;2.83;;;;;;;16.95;45.12;102095.50;5052787;28;20032;-83
2023/06/04 06:47:46;;;;;;;4.27;2.33;;;;;;;16.76;46.53;102092.38;5053515;28;20029;-83
2023/06/04 06:50:11;;;;;;;3.83;2.50;;;;;;;16.83;47.75;102087.00;5055107;28;20025;-84
2023/06/04 06:52:40;;;;;;;2.40;1.90;;;;;;;17.17;47.67;102087.16;5053257;28;20083;-83
2023/06/04 06:55:05;;;;;;;2.08;1.88;;;;;;;17.43;44.97;102087.41;5053659;28;20028;-83
2023/06/04 06:57:31;;;;;;;2.67;2.20;;;;;;;17.52;44.94;102094.19;5053176;28;20033;-83
2023/06/04 06:59:56;;;;;;;4.30;2.50;;;;;;;17.45;43.81;102095.25;5052854;28;20044;-82
2023/06/04 07:02:22;;;;;;;4.70;2.60;;;;;;;17.01;43.84;102095.38;5054892;28;20485;-83
2023/06/04 07:04:48;;;;;;;4.07;2.60;;;;;;;16.80;44.96;102099.31;5053078;28;20061;-83
2023/06/04 07:07:13;;;;;;;3.40;2.50;;;;;;;16.82;45.65;102098.38;5053642;28;20056;-83
2023/06/04 07:09:38;;;;;;;4.77;2.63;;;;;;;16.94;45.17;102104.28;5052798;28;20295;-84
2023/06/04 07:12:04;;;;;;;3.03;2.20;;;;;;;17.11;46.02;102106.53;5053386;28;20029;-82
2023/06/04 07:14:29;;;;;;;2.87;2.13;;;;;;;17.45;44.02;102097.84;5052191;28;20053;-83
2023/06/04 07:16:55;;;;;;;3.53;2.20;;;;;;;17.49;44.94;102104.78;5053551;28;20093;-85
2023/06/04 07:19:20;;;;;;;3.83;2.40;;;;;;;17.65;44.79;102105.25;5053042;28;20557;-84
2023/06/04 07:21:45;;;;;;;5.33;2.40;;;;;;;17.84;44.25;102096.91;5052294;28;20393;-84
2023/06/04 07:24:10;;;;;;;3.90;2.40;;;;;;;17.80;42.30;102101.38;5053013;28;20465;-84
2023/06/04 07:26:36;;;;;;;6.37;2.60;;;;;;;17.63;42.00;102095.66;5052207;28;20021;-85
2023/06/04 07:29:01;;;;;;;5.27;2.50;;;;;;;17.59;43.03;102101.03;5052943;28;20071;-85
2023/06/04 07:31:27;;;;;;;3.97;2.30;;;;;;;17.52;43.60;102088.06;5053223;28;20021;-81
2023/06/04 07:33:52;;;;;;;4.40;2.50;;;;;;;17.65;42.98;102105.25;5071888;28;20031;-80
2023/06/04 07:36:18;;;;;;;3.53;2.10;;;;;;;17.79;43.89;102096.16;5073165;28;20012;-80
2023/06/04 07:38:43;;;;;;;2.53;2.10;;;;;;;18.04;43.21;102099.88;5072457;28;20432;-81
2023/06/04 07:41:09;;;;;;;4.40;2.37;;;;;;;18.24;41.69;102101.09;5072151;28;20111;-81
2023/06/04 07:43:35;;;;;;;3.75;1.90;;;;;;;18.32;43.04;102098.28;5072451;28;20029;-81
2023/06/04 07:46:04;;;;;;;3.70;2.17;;;;;;;18.61;42.20;102099.22;5072986;28;20021;-80
2023/06/04 07:48:32;;;;;;;1.80;1.70;;;;;;;18.78;42.46;102101.34;5071962;28;20124;-81
2023/06/04 07:51:02;;;;;;;2.85;2.20;;;;;;;18.90;39.89;102102.75;5072569;28;20047;-81
2023/06/04 07:53:27;;;;;;;4.85;2.60;;;;;;;18.70;39.87;102109.47;5072065;28;20074;-82
2023/06/04 07:55:56;;;;;;;3.43;2.10;;;;;;;18.83;41.24;102104.69;5070596;28;20024;-83
2023/06/04 07:58:22;;;;;;;2.20;2.00;;;;;;;19.05;39.69;102102.31;5052491;28;20429;-84
2023/06/04 08:00:47;;;;;;;3.73;1.83;;;;;;;19.22;37.99;102112.31;5052429;28;20469;-84
2023/06/04 08:03:12;;;;;;;4.70;2.40;;;;;;;19.10;38.24;102100.38;5066584;28;20039;-83
2023/06/04 08:05:38;;;;;;;2.57;1.97;;;;;;;19.17;39.32;102100.22;5072597;28;20082;-83
2023/06/04 08:08:03;;;;;;;4.53;2.40;;;;;;;19.06;39.17;102100.53;5072599;28;20534;-84
2023/06/04 08:10:29;;;;;;;2.63;2.10;;;;;;;19.12;38.49;102101.22;5071635;28;20040;-86
2023/06/04 08:12:55;;;;;;;3.97;2.25;;;;;;;18.93;37.66;102100.03;5072216;28;20036;-86
2023/06/04 08:15:20;;;;;;;3.03;2.17;;;;;;;19.03;38.13;102105.91;5072840;28;20024;-85
2023/06/04 08:17:45;;;;;;;3.67;2.33;;;;;;;19.02;38.38;102105.03;5071532;28;20395;-87
2023/06/04 08:20:11;;;;;;;2.73;2.00;;;;;;;19.07;38.63;102104.88;5073890;28;20032;-94
2023/06/04 08:22:37;;;;;;;2.07;1.80;;;;;;;19.34;37.93;102104.94;5072979;28;20480;-80
2023/06/04 08:25:03;;;;;;;3.83;2.10;;;;;;;19.45;37.41;102100.19;5071969;28;20025;-85
2023/06/04 08:27:28;;;;;;;3.45;2.10;;;;;;;19.58;36.35;102104.13;5072229;28;20081;-85
2023/06/04 08:29:54;;;;;;;2.57;2.13;;;;;;;19.65;36.29;102110.03;5071459;28;20024;-84
2023/06/04 08:32:19;;;;;;;5.67;2.30;;;;;;;19.68;36.62;102103.81;5071206;28;20021;-93
2023/06/04 08:34:44;;;;;;;3.37;2.20;;;;;;;19.42;33.99;102100.28;5072468;28;20385;-84
2023/06/04 08:37:10;;;;;;;3.93;2.20;;;;;;;19.47;34.70;102108.03;5071249;28;20025;-83
2023/06/04 08:39:36;;;;;;;1.90;1.80;;;;;;;19.73;36.19;102107.16;5072276;28;20495;-84
2023/06/04 08:42:07;;;;;;;2.13;1.90;;;;;;;19.99;33.46;102102.81;5070292;28;20028;-84
2023/06/04 08:44:33;;;;;;;2.95;2.20;;;;;;;19.96;33.98;102098.50;5051411;28;20064;-84
2023/06/04 08:47:04;;;;;;;2.40;1.97;;;;;;;20.08;35.91;102102.47;5052286;28;20045;-85
2023/06/04 08:49:35;;;;;;;2.22;1.85;;;;;;;20.36;34.21;102106.75;5052017;28;20477;-83
2023/06/04 08:52:00;;;;;;;2.28;1.90;;;;;;;20.52;33.83;102104.41;5056107;28;20499;-83
2023/06/04 08:54:27;;;;;;;1.93;1.80;;;;;;;20.58;32.96;102105.97;5071868;28;20025;-84
2023/06/04 08:56:56;;;;;;;2.83;2.00;;;;;;;20.41;30.47;102110.06;5071974;28;20033;-84
2023/06/04 08:59:22;;;;;;;2.25;1.80;;;;;;;20.38;32.15;102112.81;5071294;28;20389;-84
2023/06/04 09:01:48;;;;;;;3.05;1.88;;;;;;;20.49;32.01;102115.91;5068909;28;20012;-84
2023/06/04 09:04:13;;;;;;;2.13;1.80;;;;;;;20.62;30.63;102120.75;5054508;28;20119;-84
2023/06/04 09:06:41;;;;;;;2.72;2.05;;;;;;;20.21;28.91;102119.56;5055069;28;20163;-84
2023/06/04 09:09:09;;;;;;;3.40;1.88;;;;;;;20.33;29.59;102122.69;5055586;28;20064;-83
2023/06/04 09:11:52;;;;;;;3.60;1.80;;;;;;;20.35;31.57;102118.22;5055145;28;20449;-82
2023/06/04 09:14:17;;;;;;;2.70;1.70;;;;;;;20.60;30.03;102114.69;5054944;28;20469;-83
2023/06/04 09:16:44;;;;;;;2.33;1.60;;;;;;;20.90;29.91;102120.56;5055397;28;20054;-84
2023/06/04 09:19:09;;;;;;;2.33;1.40;;;;;;;21.19;29.87;102115.94;5054685;28;20075;-83
2023/06/04 09:21:55;;;;;;;2.00;1.73;;;;;;;21.19;27.33;102117.72;5055006;28;20056;-84
2023/06/04 09:24:22;;;;;;;2.88;1.80;;;;;;;21.19;28.26;102131.78;5055488;28;20028;-83
2023/06/04 09:26:48;;;;;;;2.35;1.55;;;;;;;21.11;28.12;102132.09;5054342;28;20534;-84
2023/06/04 09:29:14;;;;;;;2.65;1.90;;;;;;;20.89;28.74;102118.00;5055110;28;20029;-82
2023/06/04 09:31:42;;;;;;;;;;;;;;;21.18;29.37;102121.28;5056533;28;20492;-83
2023/06/04 09:34:08;;;;;;;3.38;1.67;;;;;;;21.12;28.53;102111.81;5074329;28;19908;-83
2023/06/04 09:36:35;;;;;;;4.33;1.60;;;;;;;21.13;28.44;102124.97;5075047;28;20107;-83
2023/06/04 09:39:02;;;;;;;1.30;1.20;;;;;;;21.29;28.97;102119.06;5075455;28;20033;-83
2023/06/04 09:41:28;;;;;;;2.60;1.50;;;;;;;21.55;28.72;102115.38;5074149;28;20021;-84
2023/06/04 09:44:02;;;;;;;2.00;1.77;;;;;;;21.55;27.77;102125.94;5074795;28;20029;-83
2023/06/04 09:46:28;;;;;;;2.28;1.65;;;;;;;21.60;28.96;102108.13;5074679;28;20389;-81
2023/06/04 09:49:03;;;;;;;2.57;1.70;;;;;;;21.37;28.42;102117.00;5074025;28;20025;-83
2023/06/04 09:51:32;;;;;;;1.83;1.63;;;;;;;21.30;29.06;102115.50;5075280;28;20095;-83
2023/06/04 09:53:59;;;;;;;2.40;1.60;;;;;;;21.59;29.80;102106.41;5074976;28;20477;-84
2023/06/04 09:56:26;;;;;;;2.28;1.88;;;;;;;21.82;29.57;102111.66;5073710;28;20453;-84
2023/06/04 09:58:58;;;;;;;3.25;1.67;;;;;;;21.75;27.83;102111.91;5074384;28;20033;-84
2023/06/04 10:01:27;;;;;;;1.75;1.45;;;;;;;21.97;28.54;102104.84;5072002;28;20032;-83
2023/06/04 10:03:57;;;;;;;2.45;1.50;;;;;;;22.12;27.19;102108.59;5073466;28;20031;-83
2023/06/04 10:06:23;;;;;;;2.30;1.80;;;;;;;21.67;28.64;102107.91;5074850;28;20066;-86
2023/06/04 10:08:50;;;;;;;4.80;1.90;;;;;;;21.62;28.51;102116.00;5073422;28;20055;-81
2023/06/04 10:11:22;;;;;;;2.35;1.80;;;;;;;21.29;28.73;102113.78;5074463;28;20031;-83
2023/06/04 10:14:04;;;;;;;3.63;1.80;;;;;;;21.37;28.81;102114.34;5074259;28;20020;-85
2023/06/04 10:16:31;;;;;;;1.90;1.70;;;;;;;21.62;29.14;102096.66;5073155;28;20059;-83
2023/06/04 10:18:58;;;;;;;1.70;1.45;;;;;;;21.71;28.21;102107.69;5074803;28;20036;-84
2023/06/04 10:21:26;;;;;;;1.63;1.40;;;;;;;21.83;28.33;102108.09;5074460;28;20111;-83
2023/06/04 10:23:51;;;;;;;2.25;1.40;;;;;;;21.70;28.75;102105.97;5074451;28;20038;-82
2023/06/04 10:26:17;;;;;;;2.90;1.50;;;;;;;21.75;27.87;102116.34;5073872;28;20451;-84
2023/06/04 10:28:43;;;;;;;2.60;1.63;;;;;;;21.72;28.07;102106.78;5076307;28;20111;-84
2023/06/04 10:31:10;;;;;;;2.45;1.25;;;;;;;21.95;27.04;102125.19;5061149;28;20484;-84
2023/06/04 10:33:36;;;;;;;2.35;1.70;;;;;;;21.66;27.25;102111.47;5055814;28;20036;-84
2023/06/04 10:36:16;;;;;;;1.58;1.48;;;;;;;22.04;28.70;102103.66;5055257;28;20029;-85
2023/06/04 10:38:52;;;;;;;3.28;1.60;;;;;;;22.03;27.81;102104.56;5053245;28;20056;-84
2023/06/04 10:41:23;;;;;;;3.50;1.65;;;;;;;21.71;27.93;102105.06;5055256;28;20064;-85
2023/06/04 10:44:00;;;;;;;1.95;1.52;;;;;;;21.97;29.01;102102.22;5036069;28;20056;-85
2023/06/04 10:46:25;;;;;;;1.77;1.55;;;;;;;22.17;28.22;102102.19;5035749;28;20033;-85
2023/06/04 10:48:52;;;;;;;1.77;1.53;;;;;;;22.10;28.33;102099.88;5034712;28;20188;-84
2023/06/04 10:51:36;;;;;;;1.88;1.45;;;;;;;22.37;28.67;102103.94;5034986;28;20036;-85
2023/06/04 10:54:02;;;;;;;1.50;1.40;;;;;;;22.75;30.32;102096.97;5036212;28;20037;-85
2023/06/04 10:56:34;;;;;;;1.40;1.30;;;;;;;23.21;29.09;102108.03;5037520;28;20029;-85
2023/06/04 10:59:12;;;;;;;4.78;1.58;;;;;;;23.42;27.73;102105.25;5055678;28;20036;-84
2023/06/04 11:01:37;;;;;;;2.00;1.70;;;;;;;23.16;27.17;102101.22;5074195;28;20028;-83
2023/06/04 11:04:03;;;;;;;2.53;1.63;;;;;;;23.08;27.06;102123.63;5074695;28;20025;-84
2023/06/04 11:06:28;;;;;;;2.23;1.60;;;;;;;23.05;27.91;102109.69;5075004;28;20024;-85
2023/06/04 11:09:05;;;;;;;2.03;1.63;;;;;;;23.06;29.45;102084.94;5063066;28;20058;-85
2023/06/04 11:11:31;;;;;;;1.65;1.55;;;;;;;23.42;27.73;102090.22;5055771;28;20045;-85
2023/06/04 11:14:13;;;;;;;1.70;1.55;;;;;;;23.49;26.74;102093.44;5054732;28;20025;-85
2023/06/04 11:16:38;;;;;;;1.98;1.40;;;;;;;23.36;26.49;102094.97;5055884;28;20377;-86
2023/06/04 11:19:03;;;;;;;1.87;1.50;;;;;;;23.55;27.31;102097.56;5056449;28;20037;-87
2023/06/04 11:21:29;;;;;;;1.73;1.50;;;;;;;23.58;30.77;102090.31;5059017;28;20039;-86
2023/06/04 11:23:57;;;;;;;2.03;1.48;;;;;;;23.71;26.95;102087.88;5057269;28;20017;-85
2023/06/04 11:26:36;;;;;;;3.17;1.80;;;;;;;23.44;25.86;102084.84;5056088;28;20431;-84